Time;durP1;ratioP1;P1;durP2;ratioP2;P2;SDS_P1;SDS_P2;PMS_P1;PMS_P2;Temp;Humidity;BMP_temperature;BMP_pressure;BME280_temperature;BME280_humidity;BME280_pressure;Samples;Min_cycle;Max_cycle;Signal;HPM_P1;HPM_P2
2022/04/07 00:01:07;;;;;;;2.27;2.00;;;13.50;67.10;;;;;;960695;148;27654;-75
2022/04/07 00:03:33;;;;;;;2.67;1.93;;;13.50;66.80;;;;;;959795;146;27402;-75
2022/04/07 00:06:00;;;;;;;2.40;2.20;;;13.50;66.90;;;;;;961024;148;27404;-75
2022/04/07 00:08:26;;;;;;;2.40;2.10;;;13.50;66.80;;;;;;962267;148;27416;-75
2022/04/07 00:10:53;;;;;;;2.23;2.13;;;13.50;66.70;;;;;;962585;148;27303;-75
2022/04/07 00:13:20;;;;;;;2.97;2.70;;;13.50;66.70;;;;;;961567;148;27310;-75
2022/04/07 00:15:46;;;;;;;2.67;2.23;;;13.50;66.70;;;;;;960525;148;27375;-75
2022/04/07 00:18:13;;;;;;;3.07;2.43;;;13.40;66.50;;;;;;961300;148;27347;-75
2022/04/07 00:20:42;;;;;;;2.50;2.30;;;13.40;66.50;;;;;;961527;148;27345;-75
2022/04/07 00:23:06;;;;;;;2.37;2.20;;;13.40;66.50;;;;;;961756;148;27412;-75
2022/04/07 00:25:32;;;;;;;2.33;2.10;;;13.30;66.50;;;;;;962318;148;27387;-75
2022/04/07 00:27:59;;;;;;;2.60;1.90;;;13.30;66.70;;;;;;960505;148;27252;-75
2022/04/07 00:30:26;;;;;;;2.97;2.70;;;13.20;66.60;;;;;;961381;148;27306;-75
2022/04/07 00:32:52;;;;;;;2.43;2.23;;;13.20;66.70;;;;;;960215;148;27378;-75
2022/04/07 00:35:19;;;;;;;2.60;2.37;;;13.10;66.80;;;;;;960049;148;28389;-75
2022/04/07 00:37:45;;;;;;;3.40;2.60;;;13.10;66.80;;;;;;962893;148;27259;-75
2022/04/07 00:40:12;;;;;;;3.30;2.00;;;13.00;67.00;;;;;;958698;147;27352;-75
2022/04/07 00:42:47;;;;;;;2.60;2.33;;;13.00;67.30;;;;;;949200;147;27278;-75
2022/04/07 00:45:14;;;;;;;2.90;2.30;;;13.00;67.10;;;;;;941920;149;27880;-75
2022/04/07 00:50:23;;;;;;;2.20;2.00;;;12.90;67.00;;;;;;975309;143;27375;-75
2022/04/07 00:52:53;;;;;;;2.27;2.17;;;12.90;67.10;;;;;;972942;143;27223;-75
2022/04/07 00:55:19;;;;;;;2.43;2.00;;;12.80;67.50;;;;;;973908;143;27342;-75
2022/04/07 00:57:46;;;;;;;3.07;2.20;;;12.80;67.80;;;;;;971096;143;27269;-75
2022/04/07 01:00:13;;;;;;;2.50;2.30;;;12.90;68.00;;;;;;974279;143;27450;-75
2022/04/07 01:02:39;;;;;;;2.87;2.27;;;12.90;67.90;;;;;;973752;143;27330;-75
2022/04/07 01:05:06;;;;;;;2.53;2.10;;;12.90;67.90;;;;;;973736;143;27258;-74
2022/04/07 01:07:39;;;;;;;2.50;2.30;;;12.90;67.60;;;;;;972005;143;27338;-75
2022/04/07 01:10:04;;;;;;;3.47;2.43;;;12.90;67.90;;;;;;974190;143;27335;-75
2022/04/07 01:12:31;;;;;;;3.57;2.13;;;12.90;68.00;;;;;;972652;143;27318;-75
2022/04/07 01:14:59;;;;;;;2.37;2.17;;;12.80;67.90;;;;;;972544;143;27289;-75
2022/04/07 01:17:24;;;;;;;2.20;2.03;;;12.80;68.20;;;;;;974496;143;27313;-75
2022/04/07 01:19:51;;;;;;;2.10;1.90;;;12.80;68.10;;;;;;972560;143;27413;-75
2022/04/07 01:22:17;;;;;;;4.37;1.97;;;12.70;68.50;;;;;;975213;143;27332;-75
2022/04/07 01:24:44;;;;;;;1.83;1.73;;;12.70;68.50;;;;;;977284;143;27308;-75
2022/04/07 01:27:11;;;;;;;2.23;1.80;;;12.70;68.70;;;;;;975667;143;27234;-75
2022/04/07 01:29:38;;;;;;;2.00;1.80;;;12.60;68.70;;;;;;975456;143;27286;-75
2022/04/07 01:32:18;;;;;;;1.97;1.87;;;12.60;69.10;;;;;;974961;143;27375;-75
2022/04/07 01:34:45;;;;;;;3.27;2.30;;;12.60;69.30;;;;;;918496;148;27423;-75
2022/04/07 01:37:11;;;;;;;1.80;1.70;;;12.60;69.60;;;;;;967067;145;27289;-75
2022/04/07 01:39:38;;;;;;;2.00;1.90;;;12.60;69.50;;;;;;958038;146;27317;-75
2022/04/07 01:42:05;;;;;;;1.90;1.80;;;12.60;69.80;;;;;;959720;146;27267;-75
2022/04/07 01:44:31;;;;;;;3.43;2.03;;;12.60;70.30;;;;;;966319;146;27390;-75
2022/04/07 01:46:58;;;;;;;1.90;1.80;;;12.60;70.30;;;;;;966473;146;27340;-75
2022/04/07 01:49:24;;;;;;;1.80;1.70;;;12.70;70.30;;;;;;964939;144;28356;-74
2022/04/07 01:51:51;;;;;;;2.00;1.90;;;12.80;70.20;;;;;;982322;142;27311;-75
2022/04/07 01:54:18;;;;;;;2.73;1.77;;;12.80;70.40;;;;;;983945;142;27734;-75
2022/04/07 01:56:44;;;;;;;2.40;1.87;;;12.90;70.10;;;;;;967459;145;27289;-75
2022/04/07 01:59:12;;;;;;;1.90;1.70;;;12.90;70.30;;;;;;982991;142;27354;-75
2022/04/07 02:01:37;;;;;;;1.70;1.60;;;12.90;70.10;;;;;;983370;142;27394;-75
2022/04/07 02:04:04;;;;;;;1.70;1.60;;;13.00;69.90;;;;;;984697;142;27445;-75
2022/04/07 02:06:31;;;;;;;2.23;1.80;;;13.00;70.30;;;;;;967504;145;27300;-75
2022/04/07 02:08:57;;;;;;;1.50;1.40;;;13.00;70.10;;;;;;971530;145;27375;-75
2022/04/07 02:11:24;;;;;;;1.70;1.40;;;13.10;70.10;;;;;;966911;145;27664;-75
2022/04/07 02:13:50;;;;;;;1.70;1.60;;;13.10;70.10;;;;;;964341;145;27751;-75
2022/04/07 02:16:19;;;;;;;1.43;1.33;;;13.20;70.00;;;;;;983588;142;27398;-75
2022/04/07 02:18:43;;;;;;;1.60;1.50;;;13.20;70.00;;;;;;982823;142;27295;-75
2022/04/07 02:21:10;;;;;;;1.77;1.67;;;13.30;69.80;;;;;;962326;145;27403;-75
2022/04/07 02:23:42;;;;;;;1.47;1.33;;;13.30;69.90;;;;;;964446;145;27476;-75
2022/04/07 02:26:12;;;;;;;1.47;1.37;;;13.40;69.70;;;;;;984701;142;27299;-75
2022/04/07 02:28:38;;;;;;;2.80;1.70;;;13.40;69.70;;;;;;984555;142;27248;-75
2022/04/07 02:31:05;;;;;;;1.33;1.23;;;13.40;69.50;;;;;;983275;142;27339;-72
2022/04/07 02:33:34;;;;;;;1.60;1.50;;;13.50;69.70;;;;;;985957;142;27488;-73
2022/04/07 02:35:58;;;;;;;1.20;1.20;;;13.50;69.60;;;;;;966676;145;28458;-72
2022/04/07 02:38:25;;;;;;;1.10;1.10;;;13.50;69.60;;;;;;984406;142;27292;-75
2022/04/07 02:40:51;;;;;;;1.30;1.20;;;13.50;69.70;;;;;;986043;142;27324;-75
2022/04/07 02:43:18;;;;;;;1.97;1.40;;;13.60;69.90;;;;;;969003;145;27295;-75
2022/04/07 02:45:44;;;;;;;1.20;1.20;;;13.60;70.20;;;;;;962577;145;27318;-75
2022/04/07 02:48:11;;;;;;;2.27;1.60;;;13.60;70.30;;;;;;964690;145;27456;-75
2022/04/07 02:50:38;;;;;;;1.40;1.30;;;13.50;70.30;;;;;;966658;145;27366;-75
2022/04/07 02:53:04;;;;;;;1.50;1.40;;;13.50;70.30;;;;;;977385;143;27370;-75
2022/04/07 02:55:31;;;;;;;1.60;1.50;;;13.50;70.50;;;;;;962980;145;27376;-75
2022/04/07 02:58:00;;;;;;;1.80;1.57;;;13.40;70.40;;;;;;978669;143;27908;-75
2022/04/07 03:00:27;;;;;;;1.63;1.53;;;13.40;70.50;;;;;;977764;143;27272;-75
2022/04/07 03:02:54;;;;;;;1.33;1.30;;;13.40;70.70;;;;;;979058;143;27313;-75
2022/04/07 03:05:20;;;;;;;1.30;1.20;;;13.40;71.00;;;;;;963113;146;27431;-75
2022/04/07 03:07:47;;;;;;;1.37;1.27;;;13.40;70.90;;;;;;960617;144;27257;-75
2022/04/07 03:10:15;;;;;;;1.47;1.30;;;13.30;70.90;;;;;;978510;143;27500;-75
2022/04/07 03:12:41;;;;;;;1.43;1.33;;;13.30;70.50;;;;;;959959;146;27336;-75
2022/04/07 03:15:06;;;;;;;1.20;1.07;;;13.30;71.20;;;;;;964986;145;27314;-75
2022/04/07 03:17:33;;;;;;;1.40;1.30;;;13.30;71.10;;;;;;961446;146;27357;-75
2022/04/07 03:20:00;;;;;;;0.90;0.90;;;13.30;71.40;;;;;;966426;146;27768;-75
2022/04/07 03:22:26;;;;;;;1.43;1.00;;;13.30;71.50;;;;;;966133;146;27336;-75
2022/04/07 03:24:53;;;;;;;2.23;1.33;;;13.30;71.40;;;;;;966252;145;27756;-75
2022/04/07 03:27:19;;;;;;;1.43;1.10;;;13.30;71.30;;;;;;961264;146;27338;-75
2022/04/07 03:29:46;;;;;;;0.90;0.90;;;13.30;71.30;;;;;;961332;146;27252;-75
2022/04/07 03:32:13;;;;;;;1.10;1.10;;;13.30;71.40;;;;;;964412;145;27373;-75
2022/04/07 03:34:39;;;;;;;1.67;1.37;;;13.40;71.50;;;;;;978713;143;27309;-75
2022/04/07 03:37:06;;;;;;;1.03;1.03;;;13.40;71.50;;;;;;979869;143;27662;-75
2022/04/07 03:39:35;;;;;;;1.57;1.00;;;13.40;71.60;;;;;;964506;145;27251;-75
2022/04/07 03:42:02;;;;;;;1.23;1.00;;;13.40;71.20;;;;;;961554;145;27351;-75
2022/04/07 03:44:28;;;;;;;0.80;0.80;;;13.40;71.20;;;;;;958813;146;27313;-75
2022/04/07 03:46:55;;;;;;;0.90;0.90;;;13.40;71.40;;;;;;966758;146;27313;-75
2022/04/07 03:49:22;;;;;;;0.93;0.87;;;13.40;71.20;;;;;;983087;142;27333;-75
2022/04/07 03:51:48;;;;;;;1.00;1.00;;;13.40;71.40;;;;;;957841;145;27279;-75
2022/04/07 03:54:17;;;;;;;0.90;0.90;;;13.40;71.50;;;;;;976911;146;27233;-75
2022/04/07 03:56:41;;;;;;;1.27;1.20;;;13.40;71.50;;;;;;964467;146;27572;-75
2022/04/07 03:59:08;;;;;;;1.30;1.20;;;13.40;71.70;;;;;;960513;145;28193;-75
2022/04/07 04:01:35;;;;;;;1.30;1.20;;;13.40;72.60;;;;;;978281;144;27429;-75
2022/04/07 04:04:04;;;;;;;1.00;1.00;;;13.40;72.00;;;;;;978054;146;27268;-75
2022/04/07 04:06:30;;;;;;;1.30;1.20;;;13.40;72.40;;;;;;960954;146;27254;-75
2022/04/07 04:08:57;;;;;;;0.77;0.77;;;13.40;72.60;;;;;;959203;148;27321;-75
2022/04/07 04:11:24;;;;;;;1.20;0.97;;;13.30;72.80;;;;;;962251;146;27356;-75
2022/04/07 04:13:50;;;;;;;0.80;0.80;;;13.30;72.60;;;;;;977465;145;27378;-75
2022/04/07 04:16:17;;;;;;;1.73;0.90;;;13.30;72.80;;;;;;975612;146;27302;-75
2022/04/07 04:18:46;;;;;;;0.80;0.80;;;13.30;72.80;;;;;;969845;145;27330;-75
2022/04/07 04:21:13;;;;;;;1.37;0.80;;;13.20;72.90;;;;;;968516;146;27394;-75
2022/04/07 04:23:40;;;;;;;1.53;0.93;;;13.30;73.00;;;;;;960184;148;27322;-75
2022/04/07 04:26:06;;;;;;;0.70;0.70;;;13.20;73.40;;;;;;973444;146;27247;-75
2022/04/07 04:28:32;;;;;;;0.77;0.77;;;13.20;73.40;;;;;;958358;148;27406;-75
2022/04/07 04:30:59;;;;;;;0.90;0.90;;;13.20;73.50;;;;;;967935;145;27309;-75
2022/04/07 04:33:26;;;;;;;0.87;0.87;;;13.20;73.40;;;;;;959310;147;27336;-75
2022/04/07 04:35:52;;;;;;;0.90;0.90;;;13.20;73.50;;;;;;978609;143;27852;-75
2022/04/07 04:38:19;;;;;;;2.53;1.10;;;13.20;72.70;;;;;;964889;148;27300;-75
2022/04/07 04:40:45;;;;;;;0.67;0.63;;;13.20;73.40;;;;;;966809;145;27923;-75
2022/04/07 04:43:12;;;;;;;1.37;0.80;;;13.20;73.20;;;;;;969484;144;27365;-75
2022/04/07 04:45:39;;;;;;;1.10;1.00;;;13.20;73.90;;;;;;970531;145;27358;-75
2022/04/07 04:48:05;;;;;;;1.00;0.90;;;13.30;73.40;;;;;;968109;145;27365;-75
2022/04/07 04:50:32;;;;;;;0.87;0.87;;;13.30;73.20;;;;;;964970;148;27238;-75
2022/04/07 04:52:58;;;;;;;0.90;0.90;;;13.30;73.50;;;;;;962608;146;27354;-75
2022/04/07 04:55:25;;;;;;;0.70;0.70;;;13.30;73.20;;;;;;962805;144;27375;-75
2022/04/07 04:57:51;;;;;;;0.73;0.73;;;13.30;73.30;;;;;;963758;146;27354;-75
2022/04/07 05:00:18;;;;;;;0.83;0.70;;;13.30;73.50;;;;;;976569;143;27315;-75
2022/04/07 05:02:45;;;;;;;1.03;0.90;;;13.30;73.50;;;;;;977263;143;27350;-75
2022/04/07 05:05:12;;;;;;;1.30;1.20;;;13.30;73.50;;;;;;963414;145;27635;-75
2022/04/07 05:07:38;;;;;;;1.63;1.10;;;13.30;73.90;;;;;;976711;143;27446;-75
2022/04/07 05:10:04;;;;;;;1.27;1.00;;;13.30;72.40;;;;;;978334;143;27348;-75
2022/04/07 05:12:31;;;;;;;1.40;1.10;;;13.30;73.40;;;;;;975066;143;27338;-75
2022/04/07 05:14:58;;;;;;;1.17;0.83;;;13.30;73.20;;;;;;978559;143;27367;-75
2022/04/07 05:17:24;;;;;;;1.47;0.80;;;13.40;73.20;;;;;;978621;143;27393;-75
2022/04/07 05:19:51;;;;;;;0.83;0.83;;;13.40;73.20;;;;;;977799;143;27338;-75
2022/04/07 05:22:18;;;;;;;0.70;0.70;;;13.40;73.50;;;;;;977864;143;27510;-75
2022/04/07 05:24:44;;;;;;;0.70;0.70;;;13.40;73.30;;;;;;976608;143;27335;-75
2022/04/07 05:27:11;;;;;;;0.77;0.70;;;13.50;73.60;;;;;;979130;143;27399;-75
2022/04/07 05:29:37;;;;;;;0.97;0.63;;;13.50;73.50;;;;;;978602;143;27329;-75
2022/04/07 05:32:04;;;;;;;1.27;0.90;;;13.50;73.30;;;;;;961158;146;27280;-75
2022/04/07 05:34:30;;;;;;;1.13;0.73;;;13.60;73.30;;;;;;961560;146;27448;-75
2022/04/07 05:36:57;;;;;;;0.63;0.63;;;13.60;73.30;;;;;;967484;145;27329;-75
2022/04/07 05:39:24;;;;;;;2.27;0.80;;;13.60;73.20;;;;;;962601;146;27325;-75
2022/04/07 05:41:50;;;;;;;0.50;0.50;;;13.70;73.20;;;;;;960238;146;27390;-75
2022/04/07 05:44:17;;;;;;;1.90;0.87;;;13.80;73.00;;;;;;963128;146;27287;-75
2022/04/07 05:46:43;;;;;;;0.70;0.70;;;13.80;72.70;;;;;;982911;142;27331;-75
2022/04/07 05:49:11;;;;;;;0.73;0.73;;;13.80;72.60;;;;;;981707;142;27314;-75
2022/04/07 05:51:36;;;;;;;0.43;0.43;;;13.80;72.40;;;;;;984081;142;27415;-75
2022/04/07 05:54:03;;;;;;;2.63;0.73;;;13.90;72.40;;;;;;984600;143;27285;-75
2022/04/07 05:56:30;;;;;;;0.47;0.47;;;13.90;72.50;;;;;;982707;145;27338;-75
2022/04/07 05:58:56;;;;;;;0.43;0.43;;;13.90;72.60;;;;;;965565;145;27355;-75
2022/04/07 06:01:23;;;;;;;0.50;0.50;;;14.00;72.70;;;;;;983094;142;27370;-75
2022/04/07 06:03:49;;;;;;;0.70;0.60;;;14.00;72.50;;;;;;966589;144;27283;-75
2022/04/07 06:06:16;;;;;;;1.70;0.60;;;14.10;72.50;;;;;;965620;145;27339;-75
2022/04/07 06:08:42;;;;;;;1.03;0.73;;;14.10;72.50;;;;;;970754;145;27260;-75
2022/04/07 06:11:09;;;;;;;1.53;0.70;;;14.20;72.40;;;;;;971100;145;27413;-75
2022/04/07 06:13:38;;;;;;;0.80;0.60;;;14.30;72.40;;;;;;969927;147;27444;-75
2022/04/07 06:16:02;;;;;;;0.60;0.60;;;14.30;72.40;;;;;;983645;145;27213;-75
2022/04/07 06:18:29;;;;;;;0.50;0.50;;;14.30;72.30;;;;;;977714;144;27348;-75
2022/04/07 06:20:55;;;;;;;0.60;0.60;;;14.30;72.40;;;;;;982132;144;27303;-75
2022/04/07 06:23:22;;;;;;;0.70;0.53;;;14.30;72.10;;;;;;979160;145;27358;-75
2022/04/07 06:25:49;;;;;;;0.53;0.53;;;14.30;72.20;;;;;;983289;143;27402;-75
2022/04/07 06:28:15;;;;;;;0.47;0.47;;;14.30;72.10;;;;;;966464;145;27269;-75
2022/04/07 06:30:42;;;;;;;0.60;0.60;;;14.30;72.10;;;;;;966805;145;27449;-75
2022/04/07 06:33:08;;;;;;;0.50;0.50;;;14.30;71.90;;;;;;962210;147;27424;-75
2022/04/07 06:35:35;;;;;;;0.67;0.63;;;14.20;71.80;;;;;;973834;144;27329;-75
2022/04/07 06:38:02;;;;;;;0.70;0.70;;;14.20;71.90;;;;;;970693;147;27312;-75
2022/04/07 06:40:31;;;;;;;0.60;0.60;;;14.20;72.20;;;;;;983697;144;27371;-75
2022/04/07 06:42:58;;;;;;;1.43;0.50;;;14.20;72.30;;;;;;984247;145;27791;-75
2022/04/07 06:45:24;;;;;;;0.60;0.60;;;14.10;72.10;;;;;;982234;144;27277;-75
2022/04/07 06:47:51;;;;;;;0.97;0.50;;;14.10;72.50;;;;;;982799;145;27383;-75
2022/04/07 06:50:18;;;;;;;1.27;0.60;;;14.10;72.20;;;;;;965562;145;27357;-75
2022/04/07 06:52:44;;;;;;;0.60;0.60;;;14.10;72.40;;;;;;980952;143;27314;-75
2022/04/07 06:55:11;;;;;;;0.60;0.60;;;14.10;72.40;;;;;;977274;143;27290;-75
2022/04/07 06:57:58;;;;;;;0.73;0.73;;;14.10;72.40;;;;;;979245;143;27259;-75
2022/04/07 07:00:25;;;;;;;0.70;0.50;;;14.10;72.40;;;;;;977617;143;27426;-75
2022/04/07 07:02:54;;;;;;;0.70;0.70;;;14.10;72.20;;;;;;978071;143;27663;-75
2022/04/07 07:05:21;;;;;;;0.60;0.60;;;14.10;72.20;;;;;;975750;143;27390;-75
2022/04/07 07:07:48;;;;;;;0.83;0.60;;;14.10;72.20;;;;;;977504;143;27268;-75
2022/04/07 07:10:14;;;;;;;0.60;0.53;;;14.10;72.10;;;;;;963609;144;27335;-75
2022/04/07 07:12:41;;;;;;;1.13;0.80;;;14.10;72.40;;;;;;976427;143;27316;-75
2022/04/07 07:15:07;;;;;;;1.70;0.77;;;14.10;72.70;;;;;;982994;142;27427;-75
2022/04/07 07:17:34;;;;;;;1.30;0.80;;;14.10;73.00;;;;;;969920;145;27361;-75
2022/04/07 07:20:01;;;;;;;0.47;0.47;;;14.10;73.60;;;;;;976186;143;27260;-75
2022/04/07 07:22:27;;;;;;;0.80;0.77;;;14.00;73.00;;;;;;964441;145;27346;-75
2022/04/07 07:24:54;;;;;;;0.70;0.70;;;14.00;73.50;;;;;;963548;145;27321;-74
2022/04/07 07:27:20;;;;;;;0.53;0.53;;;14.00;73.70;;;;;;963493;145;27342;-75
2022/04/07 07:29:47;;;;;;;0.40;0.40;;;13.90;73.60;;;;;;957589;146;28639;-75
2022/04/07 07:32:13;;;;;;;0.57;0.57;;;13.90;73.90;;;;;;968777;145;27347;-75
2022/04/07 07:34:40;;;;;;;0.80;0.80;;;13.90;74.00;;;;;;957869;145;27283;-74
2022/04/07 07:37:07;;;;;;;0.97;0.80;;;13.90;74.50;;;;;;957289;144;27394;-75
2022/04/07 07:39:33;;;;;;;0.83;0.53;;;13.90;74.70;;;;;;976852;143;27933;-75
2022/04/07 07:42:00;;;;;;;0.70;0.70;;;13.80;74.70;;;;;;964566;145;27434;-76
2022/04/07 07:44:26;;;;;;;0.50;0.50;;;13.80;75.10;;;;;;963680;145;27318;-75
2022/04/07 07:46:53;;;;;;;0.60;0.60;;;13.80;75.20;;;;;;976840;143;27288;-75
2022/04/07 07:49:20;;;;;;;1.70;1.13;;;13.80;75.50;;;;;;978347;143;27415;-74
2022/04/07 07:51:47;;;;;;;1.27;0.87;;;13.80;75.50;;;;;;974795;143;27359;-75
2022/04/07 07:54:13;;;;;;;0.50;0.50;;;13.90;75.70;;;;;;978897;143;27319;-75
2022/04/07 07:56:39;;;;;;;0.80;0.80;;;13.90;76.00;;;;;;984293;145;27251;-75
2022/04/07 07:59:06;;;;;;;0.80;0.80;;;13.90;75.90;;;;;;965331;145;27265;-75
2022/04/07 08:01:33;;;;;;;0.40;0.40;;;13.90;76.00;;;;;;967179;144;27329;-74
2022/04/07 08:03:59;;;;;;;0.70;0.70;;;13.90;75.70;;;;;;983396;143;27334;-75
2022/04/07 08:06:26;;;;;;;0.80;0.80;;;14.00;75.70;;;;;;981695;145;27334;-76
2022/04/07 08:08:52;;;;;;;0.87;0.83;;;13.90;75.90;;;;;;982918;145;27652;-75
2022/04/07 08:11:19;;;;;;;0.50;0.50;;;13.90;76.00;;;;;;982757;143;27372;-76
2022/04/07 08:13:45;;;;;;;0.80;0.80;;;13.90;75.80;;;;;;968326;145;27347;-75
2022/04/07 08:16:12;;;;;;;0.60;0.60;;;13.90;75.80;;;;;;982041;145;27392;-75
2022/04/07 08:18:39;;;;;;;0.47;0.47;;;13.90;75.80;;;;;;964371;148;27281;-75
2022/04/07 08:21:05;;;;;;;0.43;0.43;;;13.90;75.90;;;;;;982635;143;27287;-76
2022/04/07 08:23:32;;;;;;;0.60;0.60;;;13.90;75.90;;;;;;985654;143;27379;-76
2022/04/07 08:25:58;;;;;;;0.40;0.40;;;14.00;75.80;;;;;;964260;147;27373;-75
2022/04/07 08:28:25;;;;;;;1.13;0.40;;;14.00;76.00;;;;;;978356;144;27342;-76
2022/04/07 08:30:52;;;;;;;0.40;0.33;;;14.00;76.10;;;;;;973599;145;27317;-76
2022/04/07 08:33:18;;;;;;;0.50;0.50;;;14.00;76.00;;;;;;984458;145;27340;-76
2022/04/07 08:35:45;;;;;;;0.53;0.40;;;14.10;76.00;;;;;;965630;147;27239;-76
2022/04/07 08:38:15;;;;;;;0.60;0.60;;;14.10;76.10;;;;;;966189;145;27305;-76
2022/04/07 08:40:38;;;;;;;1.10;0.70;;;14.10;76.40;;;;;;981471;145;27439;-76
2022/04/07 08:43:04;;;;;;;0.40;0.40;;;14.10;76.60;;;;;;984536;145;27420;-76
2022/04/07 08:45:31;;;;;;;0.80;0.80;;;14.20;76.70;;;;;;984546;145;27300;-76
2022/04/07 08:47:58;;;;;;;1.07;0.33;;;14.20;77.20;;;;;;984727;144;27257;-76
2022/04/07 08:50:24;;;;;;;0.70;0.70;;;14.20;77.50;;;;;;982980;145;27463;-77
2022/04/07 08:52:51;;;;;;;1.97;0.67;;;14.20;77.30;;;;;;984714;145;27336;-76
2022/04/07 08:55:17;;;;;;;0.53;0.53;;;14.30;77.20;;;;;;983574;145;27273;-76
2022/04/07 08:57:44;;;;;;;0.50;0.50;;;14.30;77.40;;;;;;981671;145;27281;-76
2022/04/07 09:00:11;;;;;;;1.00;0.50;;;14.40;77.30;;;;;;981237;145;27284;-76
2022/04/07 09:02:38;;;;;;;0.47;0.47;;;14.40;77.50;;;;;;983892;145;27329;-76
2022/04/07 09:05:04;;;;;;;0.50;0.50;;;14.50;77.50;;;;;;984662;143;27322;-76
2022/04/07 09:07:31;;;;;;;0.40;0.40;;;14.60;77.30;;;;;;982082;145;27255;-77
2022/04/07 09:10:02;;;;;;;0.70;0.50;;;14.60;77.20;;;;;;983252;145;27251;-76
2022/04/07 09:12:29;;;;;;;0.63;0.53;;;14.70;77.20;;;;;;981710;145;27399;-76
2022/04/07 09:14:56;;;;;;;0.50;0.50;;;14.80;77.20;;;;;;970765;146;27425;-78
2022/04/07 09:17:22;;;;;;;0.40;0.40;;;14.80;76.90;;;;;;964534;145;27419;-76
2022/04/07 09:19:52;;;;;;;0.53;0.53;;;14.90;76.60;;;;;;970771;145;27273;-76
2022/04/07 09:22:18;;;;;;;0.53;0.53;;;15.00;76.50;;;;;;962928;146;27441;-76
2022/04/07 09:24:45;;;;;;;0.40;0.40;;;15.00;76.10;;;;;;981386;145;27280;-76
2022/04/07 09:27:12;;;;;;;0.70;0.50;;;15.10;75.90;;;;;;965290;147;27446;-77
2022/04/07 09:29:44;;;;;;;0.30;0.30;;;15.10;75.60;;;;;;980614;145;27276;-77
2022/04/07 09:32:25;;;;;;;0.40;0.40;;;15.10;75.50;;;;;;982593;145;27450;-77
2022/04/07 09:34:58;;;;;;;0.73;0.53;;;15.10;75.20;;;;;;978503;145;27261;-77
2022/04/07 09:37:25;;;;;;;2.00;0.60;;;15.20;75.00;;;;;;982234;145;27351;-77
2022/04/07 09:40:03;;;;;;;0.97;0.83;;;15.20;75.00;;;;;;981019;145;27318;-77
2022/04/07 09:42:30;;;;;;;3.93;0.50;;;15.20;74.80;;;;;;979509;145;27304;-78
2022/04/07 09:45:01;;;;;;;0.50;0.40;;;15.20;74.80;;;;;;982498;145;27283;-77
2022/04/07 09:47:41;;;;;;;0.40;0.40;;;15.30;74.90;;;;;;984812;145;27319;-77
2022/04/07 09:50:08;;;;;;;0.77;0.47;;;15.30;74.70;;;;;;984061;145;27422;-76
2022/04/07 09:52:34;;;;;;;1.17;0.50;;;15.30;74.60;;;;;;981704;145;27429;-77
2022/04/07 09:55:06;;;;;;;0.30;0.30;;;15.40;75.00;;;;;;982151;143;27239;-77
2022/04/07 09:57:31;;;;;;;0.50;0.50;;;15.40;75.00;;;;;;981390;143;27248;-76
2022/04/07 09:59:57;;;;;;;0.40;0.40;;;15.50;75.30;;;;;;979306;143;27218;-77
2022/04/07 10:02:24;;;;;;;0.50;0.50;;;15.60;74.80;;;;;;980526;143;27282;-76
2022/04/07 10:04:50;;;;;;;0.33;0.33;;;15.60;74.00;;;;;;981415;143;27419;-77
2022/04/07 10:07:17;;;;;;;0.60;0.60;;;15.70;73.70;;;;;;979419;143;27255;-77
2022/04/07 10:09:46;;;;;;;0.70;0.40;;;15.80;73.70;;;;;;980207;143;27250;-77
2022/04/07 10:12:10;;;;;;;1.17;0.40;;;15.80;73.50;;;;;;979846;143;27394;-76
2022/04/07 10:14:37;;;;;;;0.40;0.40;;;15.80;73.30;;;;;;981904;143;27341;-75
2022/04/07 10:17:03;;;;;;;1.80;0.60;;;15.80;73.50;;;;;;977480;143;27294;-77
2022/04/07 10:19:30;;;;;;;1.10;0.60;;;15.90;75.00;;;;;;977457;143;27287;-76
2022/04/07 10:21:56;;;;;;;0.67;0.67;;;15.90;74.70;;;;;;979874;143;27293;-77
2022/04/07 10:24:26;;;;;;;0.60;0.60;;;15.80;74.60;;;;;;978071;143;27343;-76
2022/04/07 10:26:53;;;;;;;0.65;0.40;;;15.80;75.10;;;;;;980547;143;27319;-76
2022/04/07 10:29:22;;;;;;;0.70;0.60;;;15.80;75.60;;;;;;978709;143;27448;-77
2022/04/07 10:32:13;;;;;;;0.77;0.50;;;15.80;76.20;;;;;;979256;143;28088;-77
2022/04/07 10:34:42;;;;;;;0.40;0.40;;;15.80;76.40;;;;;;977160;143;27256;-77
2022/04/07 10:37:09;;;;;;;0.50;0.50;;;15.80;76.20;;;;;;978211;143;27297;-76
2022/04/07 10:39:37;;;;;;;0.50;0.50;;;15.70;76.50;;;;;;980444;143;27254;-75
2022/04/07 10:42:03;;;;;;;0.50;0.50;;;15.60;76.50;;;;;;978079;143;27439;-76
2022/04/07 10:44:29;;;;;;;0.60;0.60;;;15.60;76.80;;;;;;979249;143;27365;-77
2022/04/07 10:47:04;;;;;;;0.50;0.50;;;15.60;77.00;;;;;;978020;143;27254;-77
2022/04/07 10:49:31;;;;;;;0.90;0.60;;;15.60;77.30;;;;;;979049;143;27374;-77
2022/04/07 10:51:58;;;;;;;0.97;0.70;;;15.60;77.60;;;;;;979965;143;27330;-77
2022/04/07 10:54:25;;;;;;;2.43;0.60;;;15.60;78.10;;;;;;979245;143;27305;-76
2022/04/07 10:56:51;;;;;;;0.57;0.50;;;15.60;77.60;;;;;;978997;143;27260;-77
2022/04/07 10:59:34;;;;;;;0.85;0.75;;;15.70;77.60;;;;;;963882;144;27337;-76
2022/04/07 11:01:59;;;;;;;0.77;0.30;;;15.70;77.30;;;;;;979242;143;27271;-76
2022/04/07 11:04:26;;;;;;;0.20;0.20;;;15.70;77.40;;;;;;977699;143;27340;-76
2022/04/07 11:09:58;;;;;;;0.20;0.20;;;15.70;77.60;;;;;;976582;143;27356;-77
2022/04/07 11:12:31;;;;;;;0.40;0.40;;;15.70;77.70;;;;;;978343;143;27260;-77
2022/04/07 11:15:03;;;;;;;0.72;0.33;;;15.80;77.70;;;;;;978350;143;27239;-76
2022/04/07 11:17:33;;;;;;;0.50;0.50;;;15.90;77.60;;;;;;979007;143;27286;-78
2022/04/07 11:20:03;;;;;;;1.10;0.77;;;15.90;77.20;;;;;;976198;143;27420;-77
2022/04/07 11:22:51;;;;;;;1.15;1.00;;;15.90;77.00;;;;;;978204;143;27325;-77
2022/04/07 11:25:20;;;;;;;0.80;0.80;;;16.00;77.30;;;;;;976199;143;27412;-76
2022/04/07 11:27:47;;;;;;;0.70;0.70;;;16.00;77.00;;;;;;973086;143;27378;-77
2022/04/07 11:30:13;;;;;;;0.60;0.60;;;16.00;77.10;;;;;;960705;145;27307;-76
2022/04/07 11:32:58;;;;;;;0.23;0.23;;;16.00;77.40;;;;;;977933;143;27474;-75
2022/04/07 11:35:25;;;;;;;1.35;0.70;;;16.10;77.60;;;;;;963438;143;27368;-78
2022/04/07 11:37:51;;;;;;;0.65;0.40;;;16.10;77.50;;;;;;979870;143;27322;-76
2022/04/07 11:40:18;;;;;;;3.00;0.67;;;16.20;77.10;;;;;;977122;143;27253;-77
2022/04/07 11:42:44;;;;;;;0.70;0.70;;;16.20;77.00;;;;;;965429;146;27269;-76
2022/04/07 11:45:11;;;;;;;0.20;0.20;;;16.30;77.00;;;;;;965352;146;27333;-76
2022/04/07 11:47:38;;;;;;;1.30;0.60;;;16.30;76.50;;;;;;961345;146;27332;-75
2022/04/07 11:50:04;;;;;;;0.30;0.30;;;16.30;76.50;;;;;;969270;145;27313;-77
2022/04/07 11:52:31;;;;;;;0.50;0.50;;;16.40;76.60;;;;;;972457;145;27310;-77
2022/04/07 11:54:57;;;;;;;2.15;0.88;;;16.40;76.80;;;;;;965805;146;27254;-77
2022/04/07 11:57:24;;;;;;;0.45;0.40;;;16.60;78.00;;;;;;965634;145;27346;-76
2022/04/07 11:59:51;;;;;;;0.80;0.35;;;16.70;76.90;;;;;;983261;142;27284;-75
2022/04/07 12:02:21;;;;;;;1.95;0.33;;;16.80;76.50;;;;;;959106;146;27376;-76
2022/04/07 12:04:47;;;;;;;0.60;0.47;;;16.90;76.20;;;;;;960671;146;28354;-77
2022/04/07 12:07:13;;;;;;;0.68;0.35;;;17.00;76.30;;;;;;976786;143;27408;-77
2022/04/07 12:09:40;;;;;;;1.70;0.33;;;17.00;75.80;;;;;;977174;143;27343;-76
2022/04/07 12:12:07;;;;;;;0.33;0.33;;;16.90;75.40;;;;;;962873;145;27344;-76
2022/04/07 12:14:33;;;;;;;1.85;1.05;;;16.80;75.30;;;;;;979856;143;27415;-76
2022/04/07 12:17:00;;;;;;;1.27;0.90;;;16.70;75.20;;;;;;962264;145;27281;-76
2022/04/07 12:19:26;;;;;;;2.57;1.97;;;16.50;75.80;;;;;;980555;143;27306;-76
2022/04/07 12:21:53;;;;;;;0.50;0.50;;;16.40;76.10;;;;;;957590;146;27283;-76
2022/04/07 12:24:19;;;;;;;1.13;1.03;;;16.20;76.40;;;;;;958100;146;28101;-75
2022/04/07 12:26:46;;;;;;;3.20;2.30;;;16.20;76.50;;;;;;961167;146;27335;-76
2022/04/07 12:29:13;;;;;;;0.83;0.83;;;16.00;77.00;;;;;;961276;146;27312;-76
2022/04/07 12:31:39;;;;;;;2.00;1.50;;;16.00;77.10;;;;;;960953;146;27308;-76
2022/04/07 12:34:06;;;;;;;1.10;1.00;;;15.90;77.30;;;;;;972586;146;27274;-75
2022/04/07 12:36:35;;;;;;;0.90;0.63;;;15.80;77.70;;;;;;971368;145;27326;-75
2022/04/07 12:39:11;;;;;;;0.57;0.30;;;15.70;78.10;;;;;;979347;143;27315;-76
2022/04/07 12:41:54;;;;;;;0.30;0.30;;;15.70;78.40;;;;;;962521;144;27207;-76
2022/04/07 12:44:26;;;;;;;0.40;0.40;;;15.70;78.80;;;;;;959688;146;27326;-76
2022/04/07 12:46:51;;;;;;;0.27;0.27;;;15.60;79.20;;;;;;966555;146;27337;-76
2022/04/07 12:49:23;;;;;;;0.27;0.27;;;15.60;79.00;;;;;;958158;146;27291;-76
2022/04/07 12:51:49;;;;;;;0.98;0.50;;;15.60;79.20;;;;;;965833;146;27403;-76
2022/04/07 12:54:16;;;;;;;2.10;0.90;;;15.60;79.40;;;;;;960074;146;27821;-75